createdAt,value
2019-01-11T00:00:42.736Z,0.00
2019-01-11T00:01:42.756Z,0.00
2019-01-11T00:02:42.865Z,0.00
2019-01-11T00:03:43.164Z,0.00
2019-01-11T00:04:42.810Z,0.00
2019-01-11T00:05:42.831Z,0.00
2019-01-11T00:06:42.834Z,0.00
2019-01-11T00:07:42.849Z,4.00
2019-01-11T00:08:42.961Z,0.00
2019-01-11T00:09:42.892Z,0.00
2019-01-11T00:10:42.908Z,0.00
2019-01-11T00:11:42.925Z,0.00
2019-01-11T00:12:42.952Z,0.00
2019-01-11T00:13:43.043Z,0.00
2019-01-11T00:14:42.989Z,0.00
2019-01-11T00:15:42.989Z,0.00
2019-01-11T00:16:43.057Z,0.00
2019-01-11T00:17:43.034Z,0.00
2019-01-11T00:18:43.181Z,0.00
2019-01-11T00:19:43.060Z,0.00
2019-01-11T00:20:43.085Z,0.00
2019-01-11T00:21:43.109Z,0.00
2019-01-11T00:22:43.099Z,0.00
2019-01-11T00:23:43.312Z,0.00
2019-01-11T00:24:43.142Z,0.00
2019-01-11T00:25:43.171Z,0.00
2019-01-11T00:26:43.168Z,0.00
2019-01-11T00:27:43.190Z,0.00
2019-01-11T00:28:44.257Z,0.00
2019-01-11T00:29:43.239Z,0.00
2019-01-11T00:30:43.235Z,0.00
2019-01-11T00:31:43.256Z,0.00
2019-01-11T00:32:43.268Z,0.00
2019-01-11T00:33:43.329Z,0.00
2019-01-11T00:34:43.304Z,0.00
2019-01-11T00:35:43.323Z,0.00
2019-01-11T00:36:43.347Z,0.00
2019-01-11T00:37:43.600Z,0.00
2019-01-11T00:38:43.383Z,0.00
2019-01-11T00:39:43.385Z,0.00
2019-01-11T00:40:43.395Z,0.00
2019-01-11T00:41:43.418Z,0.00
2019-01-11T00:42:43.544Z,0.00
2019-01-11T00:43:43.436Z,0.00
2019-01-11T00:44:43.459Z,0.00
2019-01-11T00:45:43.478Z,0.00
2019-01-11T00:46:43.526Z,0.00
2019-01-11T00:47:43.557Z,0.00
2019-01-11T00:48:43.550Z,0.00
2019-01-11T00:49:43.635Z,0.00
2019-01-11T00:50:43.572Z,0.00
2019-01-11T00:51:43.562Z,0.00
2019-01-11T00:52:43.580Z,0.00
2019-01-11T00:53:43.598Z,0.00
2019-01-11T00:54:43.730Z,0.00
2019-01-11T00:55:43.682Z,0.00
2019-01-11T00:56:43.658Z,0.00
2019-01-11T00:57:43.705Z,0.00
2019-01-11T00:58:43.683Z,0.00
2019-01-11T00:59:43.913Z,0.00
2019-01-11T01:00:43.712Z,0.00
2019-01-11T01:01:43.729Z,0.00
2019-01-11T01:02:43.736Z,0.00
2019-01-11T01:03:43.751Z,0.00
2019-01-11T01:04:43.885Z,0.00
2019-01-11T01:05:43.801Z,0.00
2019-01-11T01:06:43.810Z,0.00
2019-01-11T01:07:43.821Z,0.00
2019-01-11T01:08:43.841Z,0.00
2019-01-11T01:09:43.950Z,0.00
2019-01-11T01:10:43.857Z,0.00
2019-01-11T01:11:43.875Z,0.00
2019-01-11T01:12:43.951Z,0.00
2019-01-11T01:13:43.899Z,0.00
2019-01-11T01:14:44.029Z,0.00
2019-01-11T01:15:43.942Z,0.00
2019-01-11T01:16:43.948Z,0.00
2019-01-11T01:17:44.013Z,0.00
2019-01-11T01:18:44.030Z,0.00
2019-01-11T01:19:44.090Z,0.00
2019-01-11T01:20:44.040Z,0.00
2019-01-11T01:21:44.048Z,0.00
2019-01-11T01:22:44.063Z,0.00
2019-01-11T01:23:44.065Z,0.00
2019-01-11T01:24:44.072Z,0.00
2019-01-11T01:25:44.303Z,0.00
2019-01-11T01:26:44.846Z,0.00
2019-01-11T01:27:44.139Z,0.00
2019-01-11T01:28:44.132Z,0.00
2019-01-11T01:29:44.139Z,0.00
2019-01-11T01:30:44.365Z,0.00
2019-01-11T01:31:44.196Z,0.00
2019-01-11T01:32:44.249Z,0.00
2019-01-11T01:33:44.265Z,0.00
2019-01-11T01:34:44.226Z,0.00
2019-01-11T01:35:44.452Z,0.00
2019-01-11T01:36:44.291Z,0.00
2019-01-11T01:37:44.262Z,0.00
2019-01-11T01:38:44.288Z,0.00
2019-01-11T01:39:44.288Z,0.00
2019-01-11T01:40:44.416Z,0.00
2019-01-11T01:41:44.325Z,0.00
2019-01-11T01:42:44.353Z,0.00
2019-01-11T01:43:44.363Z,0.00
2019-01-11T01:44:44.378Z,0.00
2019-01-11T01:45:44.493Z,0.00
2019-01-11T01:46:44.440Z,0.00
2019-01-11T01:47:44.432Z,0.00
2019-01-11T01:48:45.337Z,0.00
2019-01-11T01:49:44.466Z,0.00
2019-01-11T01:50:44.656Z,0.00
2019-01-11T01:51:44.485Z,0.00
2019-01-11T01:52:44.491Z,0.00
2019-01-11T01:53:44.503Z,0.00
2019-01-11T01:54:44.525Z,0.00
2019-01-11T01:55:44.645Z,0.00
2019-01-11T01:56:44.557Z,0.00
2019-01-11T01:57:44.624Z,0.00
2019-01-11T01:58:44.587Z,0.00
2019-01-11T01:59:44.590Z,0.00
2019-01-11T02:00:44.716Z,0.00
2019-01-11T02:01:44.626Z,0.00
2019-01-11T02:02:44.655Z,0.00
2019-01-11T02:03:44.656Z,0.00
2019-01-11T02:04:44.664Z,0.00
2019-01-11T02:05:44.804Z,0.00
2019-01-11T02:06:44.690Z,0.00
2019-01-11T02:07:44.716Z,0.00
2019-01-11T02:08:44.726Z,0.00
2019-01-11T02:09:44.755Z,0.00
2019-01-11T02:10:44.926Z,0.00
2019-01-11T02:11:44.778Z,0.00
2019-01-11T02:12:44.815Z,0.00
2019-01-11T02:13:44.818Z,0.00
2019-01-11T02:14:44.824Z,0.00
2019-01-11T02:15:44.874Z,0.00
2019-01-11T02:16:44.845Z,0.00
2019-01-11T02:17:44.860Z,0.00
2019-01-11T02:18:44.880Z,0.00
2019-01-11T02:19:44.890Z,0.00
2019-01-11T02:20:44.994Z,0.00
2019-01-11T02:21:44.936Z,0.00
2019-01-11T02:22:44.942Z,0.00
2019-01-11T02:23:44.967Z,0.00
2019-01-11T02:24:44.957Z,0.00
2019-01-11T02:25:46.307Z,0.00
2019-01-11T02:26:45.014Z,0.00
2019-01-11T02:27:45.000Z,0.00
2019-01-11T02:28:45.034Z,0.00
2019-01-11T02:29:45.035Z,0.00
2019-01-11T02:30:45.147Z,0.00
2019-01-11T02:31:45.064Z,0.00
2019-01-11T02:32:52.055Z,0.00
2019-01-11T02:33:45.086Z,0.00
2019-01-11T02:34:45.116Z,0.00
2019-01-11T02:35:45.241Z,0.00
2019-01-11T02:36:45.150Z,0.00
2019-01-11T02:37:45.168Z,0.00
2019-01-11T02:38:45.187Z,0.00
2019-01-11T02:39:45.190Z,0.00
2019-01-11T02:40:45.304Z,0.00
2019-01-11T02:41:45.209Z,0.00
2019-01-11T02:42:45.230Z,0.00
2019-01-11T02:43:45.239Z,0.00
2019-01-11T02:44:45.267Z,0.00
2019-01-11T02:45:45.385Z,0.00
2019-01-11T02:46:45.285Z,0.00
2019-01-11T02:47:45.303Z,0.00
2019-01-11T02:48:45.312Z,0.00
2019-01-11T02:49:45.335Z,0.00
2019-01-11T02:50:45.563Z,0.00
2019-01-11T02:51:45.366Z,0.00
2019-01-11T02:52:45.376Z,0.00
2019-01-11T02:53:45.382Z,0.00
2019-01-11T02:54:45.425Z,0.00
2019-01-11T02:55:45.527Z,0.00
2019-01-11T02:56:45.423Z,0.00
2019-01-11T02:57:45.461Z,0.00
2019-01-11T02:58:45.462Z,0.00
2019-01-11T02:59:45.482Z,0.00
2019-01-11T03:00:45.629Z,0.00
2019-01-11T03:01:45.510Z,0.00
2019-01-11T03:02:45.531Z,0.00
2019-01-11T03:03:45.526Z,0.00
2019-01-11T03:04:45.548Z,0.00
2019-01-11T03:05:45.703Z,0.00
2019-01-11T03:06:45.583Z,0.00
2019-01-11T03:07:45.611Z,0.00
2019-01-11T03:08:45.621Z,0.00
2019-01-11T03:09:45.620Z,0.00
2019-01-11T03:10:45.781Z,0.00
2019-01-11T03:11:45.675Z,0.00
2019-01-11T03:12:45.683Z,0.00
2019-01-11T03:13:45.682Z,0.00
2019-01-11T03:14:45.686Z,0.00
2019-01-11T03:15:45.862Z,0.00
2019-01-11T03:16:45.733Z,0.00
2019-01-11T03:17:45.757Z,0.00
2019-01-11T03:18:45.758Z,0.00
2019-01-11T03:19:47.915Z,0.00
2019-01-11T03:20:45.893Z,0.00
2019-01-11T03:21:45.795Z,0.00
2019-01-11T03:22:45.815Z,0.00
2019-01-11T03:23:45.831Z,0.00
2019-01-11T03:24:45.840Z,0.00
2019-01-11T03:25:46.018Z,0.00
2019-01-11T03:26:45.883Z,0.00
2019-01-11T03:27:45.884Z,0.00
2019-01-11T03:28:45.903Z,0.00
2019-01-11T03:29:45.927Z,0.00
2019-01-11T03:30:46.042Z,0.00
2019-01-11T03:31:45.941Z,0.00
2019-01-11T03:32:45.955Z,0.00
2019-01-11T03:33:45.994Z,0.00
2019-01-11T03:34:45.989Z,0.00
2019-01-11T03:35:46.205Z,0.00
2019-01-11T03:36:46.018Z,0.00
2019-01-11T03:37:46.048Z,0.00
2019-01-11T03:38:46.050Z,0.00
2019-01-11T03:39:46.056Z,0.00
2019-01-11T03:40:46.175Z,0.00
2019-01-11T03:41:46.092Z,0.00
2019-01-11T03:42:46.113Z,0.00
2019-01-11T03:43:46.136Z,0.00
2019-01-11T03:44:46.156Z,0.00
2019-01-11T03:45:46.348Z,0.00
2019-01-11T03:46:46.165Z,0.00
2019-01-11T03:47:46.177Z,0.00
2019-01-11T03:48:46.211Z,0.00
2019-01-11T03:49:46.204Z,0.00
2019-01-11T03:50:46.337Z,0.00
2019-01-11T03:51:46.226Z,0.00
2019-01-11T03:52:46.269Z,0.00
2019-01-11T03:53:46.271Z,0.00
2019-01-11T03:54:46.289Z,0.00
2019-01-11T03:55:46.330Z,0.00
2019-01-11T03:56:46.354Z,0.00
2019-01-11T03:57:46.326Z,0.00
2019-01-11T03:58:46.456Z,0.00
2019-01-11T03:59:46.361Z,0.00
2019-01-11T04:00:46.361Z,0.00
2019-01-11T04:01:46.405Z,0.00
2019-01-11T04:02:46.395Z,0.00
2019-01-11T04:03:46.507Z,0.00
2019-01-11T04:04:46.440Z,0.00
2019-01-11T04:05:46.444Z,0.00
2019-01-11T04:06:46.456Z,0.00
2019-01-11T04:07:46.529Z,0.00
2019-01-11T04:08:46.573Z,0.00
2019-01-11T04:09:46.503Z,0.00
2019-01-11T04:10:46.533Z,0.00
2019-01-11T04:11:46.532Z,0.00
2019-01-11T04:12:46.543Z,0.00
2019-01-11T04:13:46.710Z,0.00
2019-01-11T04:14:46.564Z,0.00
2019-01-11T04:15:46.577Z,0.00
2019-01-11T04:16:46.598Z,0.00
2019-01-11T04:17:46.617Z,0.00
2019-01-11T04:18:46.741Z,0.00
2019-01-11T04:19:46.646Z,0.00
2019-01-11T04:20:46.657Z,0.00
2019-01-11T04:21:46.691Z,0.00
2019-01-11T04:22:46.709Z,0.00
2019-01-11T04:23:46.709Z,0.00
2019-01-11T04:24:46.916Z,0.00
2019-01-11T04:25:46.780Z,0.00
2019-01-11T04:26:46.749Z,0.00
2019-01-11T04:27:46.765Z,0.00
2019-01-11T04:28:46.774Z,0.00
2019-01-11T04:29:46.939Z,0.00
2019-01-11T04:30:46.815Z,0.00
2019-01-11T04:31:46.839Z,0.00
2019-01-11T04:32:46.861Z,0.00
2019-01-11T04:33:46.864Z,0.00
2019-01-11T04:34:46.986Z,0.00
2019-01-11T04:35:46.890Z,0.00
2019-01-11T04:36:46.922Z,0.00
2019-01-11T04:37:46.935Z,0.00
2019-01-11T04:38:46.937Z,0.00
2019-01-11T04:39:47.039Z,0.00
2019-01-11T04:40:46.961Z,0.00
2019-01-11T04:41:46.969Z,0.00
2019-01-11T04:42:47.026Z,0.00
2019-01-11T04:43:47.013Z,0.00
2019-01-11T04:44:47.132Z,0.00
2019-01-11T04:45:47.059Z,0.00
2019-01-11T04:46:47.061Z,0.00
2019-01-11T04:47:47.095Z,0.00
2019-01-11T04:48:47.090Z,0.00
2019-01-11T04:49:47.197Z,0.00
2019-01-11T04:50:47.121Z,0.00
2019-01-11T04:51:47.176Z,0.00
2019-01-11T04:52:47.154Z,0.00
2019-01-11T04:53:47.179Z,0.00
2019-01-11T04:54:47.289Z,0.00
2019-01-11T04:55:47.202Z,0.00
2019-01-11T04:56:47.204Z,0.00
2019-01-11T04:57:47.220Z,0.00
2019-01-11T04:58:47.235Z,0.00
2019-01-11T04:59:47.352Z,0.00
2019-01-11T05:00:47.271Z,0.00
2019-01-11T05:01:47.297Z,0.00
2019-01-11T05:02:47.297Z,0.00
2019-01-11T05:03:47.311Z,0.00
2019-01-11T05:04:47.424Z,0.00
2019-01-11T05:05:47.356Z,0.00
2019-01-11T05:06:47.363Z,0.00
2019-01-11T05:07:47.375Z,0.00
2019-01-11T05:08:47.396Z,0.00
2019-01-11T05:09:47.495Z,0.00
2019-01-11T05:10:47.419Z,0.00
2019-01-11T05:11:47.438Z,0.00
2019-01-11T05:12:47.472Z,0.00
2019-01-11T05:13:47.476Z,0.00
2019-01-11T05:14:47.624Z,0.00
2019-01-11T05:15:47.498Z,0.00
2019-01-11T05:16:47.559Z,0.00
2019-01-11T05:17:47.536Z,0.00
2019-01-11T05:18:47.538Z,0.00
2019-01-11T05:19:47.668Z,0.00
2019-01-11T05:20:47.569Z,0.00
2019-01-11T05:21:47.588Z,0.00
2019-01-11T05:22:47.609Z,0.00
2019-01-11T05:23:47.623Z,0.00
2019-01-11T05:24:47.744Z,0.00
2019-01-11T05:25:47.659Z,0.00
2019-01-11T05:26:47.720Z,0.00
2019-01-11T05:27:47.678Z,0.00
2019-01-11T05:28:47.701Z,0.00
2019-01-11T05:29:47.815Z,0.00
2019-01-11T05:30:47.742Z,0.00
2019-01-11T05:31:47.751Z,0.00
2019-01-11T05:32:47.783Z,0.00
2019-01-11T05:33:47.823Z,0.00
2019-01-11T05:34:47.915Z,0.00
2019-01-11T05:35:47.809Z,0.00
2019-01-11T05:36:47.836Z,0.00
2019-01-11T05:37:47.835Z,0.00
2019-01-11T05:38:47.857Z,0.00
2019-01-11T05:39:48.012Z,0.00
2019-01-11T05:40:47.891Z,0.00
2019-01-11T05:41:47.886Z,0.00
2019-01-11T05:42:47.913Z,0.00
2019-01-11T05:43:47.926Z,0.00
2019-01-11T05:44:47.965Z,0.00
2019-01-11T05:45:48.109Z,0.00
2019-01-11T05:46:47.971Z,0.00
2019-01-11T05:47:47.992Z,0.00
2019-01-11T05:48:48.014Z,0.00
2019-01-11T05:49:48.017Z,0.00
2019-01-11T05:50:48.077Z,0.00
2019-01-11T05:51:48.057Z,0.00
2019-01-11T05:52:48.065Z,0.00
2019-01-11T05:53:48.077Z,0.00
2019-01-11T05:54:48.207Z,0.00
2019-01-11T05:55:48.106Z,0.00
2019-01-11T05:56:48.121Z,0.00
2019-01-11T05:57:48.145Z,0.00
2019-01-11T05:58:48.166Z,0.00
2019-01-11T05:59:48.314Z,0.00
2019-01-11T06:00:48.202Z,0.00
2019-01-11T06:01:48.193Z,0.00
2019-01-11T06:02:48.243Z,0.00
2019-01-11T06:03:48.241Z,0.00
2019-01-11T06:04:48.367Z,0.00
2019-01-11T06:05:48.268Z,0.00
2019-01-11T06:06:48.284Z,0.00
2019-01-11T06:07:48.293Z,0.00
2019-01-11T06:08:48.321Z,0.00
2019-01-11T06:09:48.439Z,0.00
2019-01-11T06:10:48.341Z,0.00
2019-01-11T06:11:48.412Z,0.00
2019-01-11T06:12:48.379Z,0.00
2019-01-11T06:13:48.390Z,0.00
2019-01-11T06:14:48.514Z,0.00
2019-01-11T06:15:48.445Z,0.00
2019-01-11T06:16:48.438Z,0.00
2019-01-11T06:17:48.451Z,0.00
2019-01-11T06:18:48.495Z,0.00
2019-01-11T06:19:48.682Z,0.00
2019-01-11T06:20:48.487Z,0.00
2019-01-11T06:21:48.523Z,0.00
2019-01-11T06:22:48.549Z,0.00
2019-01-11T06:23:48.545Z,0.00
2019-01-11T06:24:48.711Z,0.00
2019-01-11T06:25:48.581Z,0.00
2019-01-11T06:26:48.592Z,0.00
2019-01-11T06:27:48.607Z,0.00
2019-01-11T06:28:48.669Z,0.00
2019-01-11T06:29:48.731Z,0.00
2019-01-11T06:30:48.646Z,0.00
2019-01-11T06:31:48.661Z,0.00
2019-01-11T06:32:48.667Z,0.00
2019-01-11T06:33:48.691Z,0.00
2019-01-11T06:34:48.831Z,0.00
2019-01-11T06:35:48.735Z,0.00
2019-01-11T06:36:48.757Z,0.00
2019-01-11T06:37:48.810Z,0.00
2019-01-11T06:38:48.762Z,0.00
2019-01-11T06:39:48.905Z,0.00
2019-01-11T06:40:48.801Z,0.00
2019-01-11T06:41:48.820Z,0.00
2019-01-11T06:42:48.829Z,0.00
2019-01-11T06:43:48.845Z,0.00
2019-01-11T06:44:49.022Z,0.00
2019-01-11T06:45:48.877Z,0.00
2019-01-11T06:46:48.907Z,0.00
2019-01-11T06:47:48.933Z,0.00
2019-01-11T06:48:48.946Z,0.00
2019-01-11T06:49:49.045Z,0.00
2019-01-11T06:50:48.966Z,0.00
2019-01-11T06:51:48.968Z,0.00
2019-01-11T06:52:48.980Z,0.00
2019-01-11T06:53:49.006Z,0.00
2019-01-11T06:54:49.126Z,0.00
2019-01-11T06:55:49.056Z,0.00
2019-01-11T06:56:49.057Z,0.00
2019-01-11T06:57:49.074Z,0.00
2019-01-11T06:58:49.082Z,0.00
2019-01-11T06:59:49.182Z,0.00
2019-01-11T07:00:49.109Z,0.00
2019-01-11T07:01:49.132Z,0.00
2019-01-11T07:02:49.135Z,0.00
2019-01-11T07:03:49.158Z,0.00
2019-01-11T07:04:49.291Z,0.00
2019-01-11T07:05:49.193Z,0.00
2019-01-11T07:06:49.195Z,0.00
2019-01-11T07:07:49.209Z,0.00
2019-01-11T07:08:49.217Z,0.00
2019-01-11T07:09:49.347Z,0.00
2019-01-11T07:10:49.272Z,0.00
2019-01-11T07:11:49.280Z,0.00
2019-01-11T07:12:49.304Z,0.00
2019-01-11T07:13:49.323Z,0.00
2019-01-11T07:14:49.418Z,0.00
2019-01-11T07:15:49.390Z,0.00
2019-01-11T07:16:49.369Z,0.00
2019-01-11T07:17:49.384Z,0.00
2019-01-11T07:18:49.390Z,0.00
2019-01-11T07:19:49.502Z,0.00
2019-01-11T07:20:49.420Z,0.00
2019-01-11T07:21:49.428Z,0.00
2019-01-11T07:22:49.438Z,0.00
2019-01-11T07:23:49.460Z,0.00
2019-01-11T07:24:49.546Z,0.00
2019-01-11T07:25:49.500Z,0.00
2019-01-11T07:26:49.561Z,0.00
2019-01-11T07:27:49.529Z,0.00
2019-01-11T07:28:49.644Z,0.00
2019-01-11T07:29:49.558Z,0.00
2019-01-11T07:30:49.584Z,0.00
2019-01-11T07:31:49.582Z,0.00
2019-01-11T07:32:49.608Z,0.00
2019-01-11T07:33:49.756Z,0.00
2019-01-11T07:34:49.626Z,0.00
2019-01-11T07:35:49.628Z,0.00
2019-01-11T07:36:49.656Z,0.00
2019-01-11T07:37:49.663Z,0.00
2019-01-11T07:38:49.810Z,0.00
2019-01-11T07:39:49.702Z,0.00
2019-01-11T07:40:49.704Z,0.00
2019-01-11T07:41:50.184Z,0.00
2019-01-11T07:42:49.748Z,0.00
2019-01-11T07:43:49.881Z,0.00
2019-01-11T07:44:49.822Z,0.00
2019-01-11T07:45:49.801Z,0.00
2019-01-11T07:46:49.818Z,0.00
2019-01-11T07:47:49.866Z,0.00
2019-01-11T07:48:49.973Z,0.00
2019-01-11T07:49:49.874Z,0.00
2019-01-11T07:50:49.876Z,0.00
2019-01-11T07:51:49.883Z,0.00
2019-01-11T07:52:49.902Z,0.00
2019-01-11T07:53:50.072Z,0.00
2019-01-11T07:54:49.921Z,0.00
2019-01-11T07:55:49.952Z,0.00
2019-01-11T07:56:49.948Z,0.00
2019-01-11T07:57:49.962Z,0.00
2019-01-11T07:58:50.159Z,0.00
2019-01-11T07:59:50.012Z,0.00
2019-01-11T08:00:50.037Z,0.00
2019-01-11T08:01:50.043Z,4.00
2019-01-11T08:02:50.057Z,0.00
2019-01-11T08:03:50.168Z,4.00
2019-01-11T08:04:50.118Z,0.00
2019-01-11T08:05:50.136Z,4.00
2019-01-11T08:06:50.124Z,4.00
2019-01-11T08:07:50.133Z,8.00
2019-01-11T08:08:50.231Z,4.00
2019-01-11T08:09:50.156Z,8.00
2019-01-11T08:10:50.166Z,12.00
2019-01-11T08:11:50.219Z,12.00
2019-01-11T08:12:50.204Z,16.00
2019-01-11T08:13:50.442Z,20.00
2019-01-11T08:14:50.240Z,28.00
2019-01-11T08:15:50.251Z,32.00
2019-01-11T08:16:50.268Z,44.00
2019-01-11T08:17:50.286Z,52.00
2019-01-11T08:18:50.394Z,64.00
2019-01-11T08:19:50.308Z,80.00
2019-01-11T08:20:56.116Z,96.00
2019-01-11T08:21:50.336Z,116.00
2019-01-11T08:22:50.339Z,136.00
2019-01-11T08:23:50.374Z,160.00
2019-01-11T08:24:50.470Z,184.00
2019-01-11T08:25:50.391Z,216.00
2019-01-11T08:26:50.412Z,248.00
2019-01-11T08:27:50.427Z,280.00
2019-01-11T08:28:50.448Z,312.00
2019-01-11T08:29:50.511Z,340.00
2019-01-11T08:30:50.624Z,372.00
2019-01-11T08:31:50.481Z,412.00
2019-01-11T08:32:50.489Z,452.00
2019-01-11T08:33:50.538Z,512.00
2019-01-11T08:34:50.545Z,576.00
2019-01-11T08:35:50.637Z,644.00
2019-01-11T08:36:50.565Z,716.00
2019-01-11T08:37:50.566Z,788.00
2019-01-11T08:38:50.602Z,860.00
2019-01-11T08:39:50.608Z,936.00
2019-01-11T08:40:50.775Z,1020.00
2019-01-11T08:41:50.662Z,1104.00
2019-01-11T08:42:50.640Z,1156.00
2019-01-11T08:43:50.663Z,1184.00
2019-01-11T08:44:50.670Z,1168.00
2019-01-11T08:45:50.905Z,1140.00
2019-01-11T08:46:50.725Z,1124.00
2019-01-11T08:47:50.754Z,1108.00
2019-01-11T08:48:50.765Z,1152.00
2019-01-11T08:49:50.763Z,1264.00
2019-01-11T08:50:50.919Z,1372.00
2019-01-11T08:51:50.779Z,1492.00
2019-01-11T08:52:50.851Z,1628.00
2019-01-11T08:53:50.847Z,1764.00
2019-01-11T08:54:50.830Z,1860.00
2019-01-11T08:55:50.942Z,1948.00
2019-01-11T08:56:50.866Z,2016.00
2019-01-11T08:57:50.884Z,2008.00
2019-01-11T08:58:50.893Z,1980.00
2019-01-11T08:59:50.917Z,1968.00
2019-01-11T09:00:51.038Z,2004.00
2019-01-11T09:01:50.954Z,2120.00
2019-01-11T09:02:50.990Z,2304.00
2019-01-11T09:03:50.989Z,2484.00
2019-01-11T09:04:51.005Z,2588.00
2019-01-11T09:05:51.094Z,2676.00
2019-01-11T09:06:51.027Z,2744.00
2019-01-11T09:07:51.057Z,2820.00
2019-01-11T09:08:51.068Z,2892.00
2019-01-11T09:09:51.100Z,2992.00
2019-01-11T09:10:51.248Z,3148.00
2019-01-11T09:11:51.128Z,3388.00
2019-01-11T09:12:51.121Z,3664.00
2019-01-11T09:13:51.148Z,3916.00
2019-01-11T09:14:51.160Z,4148.00
2019-01-11T09:15:51.224Z,4368.00
2019-01-11T09:16:51.190Z,4584.00
2019-01-11T09:17:51.183Z,4792.00
2019-01-11T09:18:51.205Z,5040.00
2019-01-11T09:19:51.389Z,6320.00
2019-01-11T09:20:51.241Z,6988.00
2019-01-11T09:21:51.292Z,8096.00
2019-01-11T09:22:51.292Z,8804.00
2019-01-11T09:23:51.290Z,9576.00
2019-01-11T09:24:51.413Z,10196.00
2019-01-11T09:25:51.337Z,10636.00
2019-01-11T09:26:51.603Z,11536.00
2019-01-11T09:27:51.355Z,12360.00
2019-01-11T09:28:51.377Z,13244.00
2019-01-11T09:29:51.490Z,13924.00
2019-01-11T09:30:51.405Z,13288.00
2019-01-11T09:31:51.439Z,11824.00
2019-01-11T09:32:51.456Z,10028.00
2019-01-11T09:33:51.473Z,9184.00
2019-01-11T09:34:51.587Z,9324.00
2019-01-11T09:35:51.521Z,9428.00
2019-01-11T09:36:51.605Z,9608.00
2019-01-11T09:37:51.545Z,10128.00
2019-01-11T09:38:51.549Z,10988.00
2019-01-11T09:39:51.691Z,11276.00
2019-01-11T09:40:51.593Z,11664.00
2019-01-11T09:41:51.625Z,12068.00
2019-01-11T09:42:51.616Z,12516.00
2019-01-11T09:43:51.659Z,13548.00
2019-01-11T09:44:51.759Z,17120.00
2019-01-11T09:45:51.672Z,22144.00
2019-01-11T09:46:51.695Z,25248.00
2019-01-11T09:47:51.720Z,27168.00
2019-01-11T09:48:51.744Z,29664.00
2019-01-11T09:49:51.871Z,27808.00
2019-01-11T09:50:51.819Z,27520.00
2019-01-11T09:51:51.801Z,29376.00
2019-01-11T09:52:51.812Z,31840.00
2019-01-11T09:53:51.843Z,34208.00
2019-01-11T09:54:51.950Z,37536.00
2019-01-11T09:55:51.879Z,38784.00
2019-01-11T09:56:51.896Z,40512.00
2019-01-11T09:57:51.918Z,38304.00
2019-01-11T09:58:51.928Z,31840.00
2019-01-11T09:59:52.043Z,26688.00
2019-01-11T10:00:51.980Z,24704.00
2019-01-11T10:01:51.974Z,24128.00
2019-01-11T10:02:51.996Z,30528.00
2019-01-11T10:03:52.012Z,41952.00
2019-01-11T10:04:52.196Z,51072.00
2019-01-11T10:05:52.067Z,59776.00
2019-01-11T10:06:52.070Z,59200.00
2019-01-11T10:07:52.086Z,60096.00
2019-01-11T10:08:52.130Z,63808.00
2019-01-11T10:09:52.288Z,64736.00
2019-01-11T10:10:52.165Z,58016.00
2019-01-11T10:11:52.193Z,37600.00
2019-01-11T10:12:52.260Z,20416.00
2019-01-11T10:13:52.222Z,17856.00
2019-01-11T10:14:52.352Z,17728.00
2019-01-11T10:15:52.258Z,18080.00
2019-01-11T10:16:52.295Z,18528.00
2019-01-11T10:17:52.304Z,19264.00
2019-01-11T10:18:52.335Z,20320.00
2019-01-11T10:19:52.385Z,21920.00
2019-01-11T10:20:52.420Z,24192.00
2019-01-11T10:28:52.538Z,16992.00
2019-01-11T10:29:52.566Z,16736.00
2019-01-11T10:30:52.589Z,16832.00
2019-01-11T10:31:52.758Z,17184.00
2019-01-11T10:32:52.604Z,18080.00
2019-01-11T10:33:52.643Z,20608.00
2019-01-11T10:34:52.690Z,27424.00
2019-01-11T10:35:52.801Z,35040.00
2019-01-11T10:36:52.764Z,35840.00
2019-01-11T10:50:53.006Z,59264.00
2019-01-11T10:51:53.016Z,64064.00
2019-01-11T10:52:53.128Z,66848.00
2019-01-11T10:53:53.055Z,63424.00
2019-01-11T10:54:53.089Z,64000.00
2019-01-11T10:55:53.114Z,65024.00
2019-01-11T10:56:53.136Z,65184.00
2019-01-11T10:57:53.178Z,66912.00
2019-01-11T10:58:53.191Z,69152.00
2019-01-11T10:59:53.188Z,74912.00
2019-01-11T11:00:53.221Z,77248.00
2019-01-11T11:01:53.256Z,69184.00
2019-01-11T11:02:53.464Z,73344.00
2019-01-11T11:03:53.278Z,75776.00
2019-01-11T11:04:53.302Z,67136.00
2019-01-11T11:05:53.337Z,87520.00
2019-01-11T11:06:53.364Z,78528.00
2019-01-11T11:07:53.517Z,84512.00
2019-01-11T11:08:53.380Z,80992.00
2019-01-11T11:09:53.404Z,23264.00
2019-01-11T11:10:53.438Z,83936.00
2019-01-11T11:11:53.492Z,79040.00
2019-01-11T11:12:53.586Z,79968.00
2019-01-11T11:13:53.500Z,81760.00
2019-01-11T11:14:53.554Z,79488.00
2019-01-11T11:15:53.566Z,80384.00
2019-01-11T11:16:53.569Z,82752.00
2019-01-11T11:17:53.656Z,78432.00
2019-01-11T11:18:53.640Z,81824.00
2019-01-11T11:19:53.664Z,85152.00
2019-01-11T11:20:53.680Z,84032.00
2019-01-11T11:21:53.720Z,85024.00
2019-01-11T11:22:53.824Z,82976.00
2019-01-11T11:23:54.171Z,83424.00
2019-01-11T11:24:53.790Z,80864.00
2019-01-11T11:25:53.839Z,77888.00
2019-01-11T11:26:53.834Z,82816.00
2019-01-11T11:27:53.962Z,85600.00
2019-01-11T11:28:53.878Z,81632.00
2019-01-11T11:29:53.916Z,84672.00
2019-01-11T11:30:54.777Z,86272.00
2019-01-11T11:31:53.967Z,88960.00
2019-01-11T11:32:54.126Z,88480.00
2019-01-11T11:33:54.002Z,83360.00
2019-01-11T11:34:54.025Z,84512.00
2019-01-11T11:35:54.060Z,85600.00
2019-01-11T11:36:54.115Z,81632.00
2019-01-11T11:37:54.185Z,80896.00
2019-01-11T11:38:54.147Z,84768.00
2019-01-11T11:39:54.382Z,84384.00
2019-01-11T11:40:54.241Z,83776.00
2019-01-11T11:41:54.244Z,85408.00
2019-01-11T11:42:54.271Z,80864.00
2019-01-11T11:43:54.298Z,80608.00
2019-01-11T11:44:54.359Z,80576.00
2019-01-11T11:45:54.329Z,81984.00
2019-01-11T11:46:54.360Z,83232.00
2019-01-11T11:47:54.497Z,78272.00
2019-01-11T11:48:54.426Z,81504.00
2019-01-11T11:49:54.434Z,84992.00
2019-01-11T11:50:54.470Z,80608.00
2019-01-11T11:51:54.497Z,80096.00
2019-01-11T11:52:54.639Z,83840.00
2019-01-11T11:53:54.556Z,85056.00
2019-01-11T11:54:54.640Z,83072.00
2019-01-11T11:55:54.612Z,81888.00
2019-01-11T11:56:54.626Z,83200.00
2019-01-11T11:57:54.750Z,82752.00
2019-01-11T11:58:54.705Z,79008.00
2019-01-11T11:59:54.726Z,76928.00
2019-01-11T12:00:54.746Z,78560.00
2019-01-11T12:01:54.787Z,79904.00
2019-01-11T12:02:54.956Z,81600.00
2019-01-11T12:03:54.829Z,82656.00
2019-01-11T12:04:54.863Z,83200.00
2019-01-11T12:05:54.891Z,82176.00
2019-01-11T12:06:54.931Z,80352.00
2019-01-11T12:07:55.097Z,79840.00
2019-01-11T12:08:54.983Z,80224.00
2019-01-11T12:09:55.023Z,80256.00
2019-01-11T12:10:55.050Z,80032.00
2019-01-11T12:11:55.083Z,81248.00
2019-01-11T12:12:55.252Z,79456.00
2019-01-11T12:13:55.127Z,81536.00
2019-01-11T12:14:55.138Z,80800.00
2019-01-11T12:15:55.166Z,79168.00
2019-01-11T12:16:55.201Z,80352.00
2019-01-11T12:17:55.322Z,79968.00
2019-01-11T12:18:55.251Z,76992.00
2019-01-11T12:19:57.098Z,77184.00
2019-01-11T12:20:55.338Z,76992.00
2019-01-11T12:22:01.509Z,77312.00
2019-01-11T12:22:55.505Z,75712.00
2019-01-11T12:23:55.406Z,76064.00
2019-01-11T12:24:55.450Z,78272.00
2019-01-11T12:25:55.474Z,77312.00
2019-01-11T12:26:55.502Z,76192.00
2019-01-11T12:27:55.685Z,73952.00
2019-01-11T12:28:55.557Z,75328.00
2019-01-11T12:29:55.633Z,75744.00
2019-01-11T12:30:55.677Z,78176.00
2019-01-11T12:31:55.709Z,78368.00
2019-01-11T12:32:55.825Z,79968.00
2019-01-11T12:33:55.755Z,77344.00
2019-01-11T12:34:55.790Z,74688.00
2019-01-11T12:35:55.806Z,77184.00
2019-01-11T12:37:55.920Z,77120.00
2019-01-11T12:38:55.834Z,75072.00
2019-01-11T12:39:55.868Z,74240.00
2019-01-11T12:40:55.913Z,75072.00
2019-01-11T12:41:55.939Z,76192.00
2019-01-11T12:42:56.050Z,75648.00
2019-01-11T12:43:56.104Z,76256.00
2019-01-11T12:44:56.022Z,76224.00
2019-01-11T12:45:56.052Z,75936.00
2019-01-11T12:46:56.190Z,75648.00
2019-01-11T12:47:56.242Z,73600.00
2019-01-11T12:48:56.149Z,74752.00
2019-01-11T12:49:56.168Z,76320.00
2019-01-11T12:50:56.188Z,77280.00
2019-01-11T12:51:56.230Z,77216.00
2019-01-11T12:52:56.400Z,74400.00
2019-01-11T12:53:56.288Z,75936.00
2019-01-11T12:54:56.437Z,75904.00
2019-01-11T12:55:56.455Z,76672.00
2019-01-11T12:56:56.355Z,74432.00
2019-01-11T12:57:56.483Z,73120.00
2019-01-11T12:58:56.437Z,72128.00
2019-01-11T12:59:56.495Z,72128.00
2019-01-11T13:00:56.603Z,74048.00
2019-01-11T13:01:56.505Z,77568.00
2019-01-11T13:02:56.629Z,77728.00
2019-01-11T13:03:56.563Z,72832.00
2019-01-11T13:04:56.588Z,72768.00
2019-01-11T13:05:56.634Z,73056.00
2019-01-11T13:06:56.659Z,73408.00